Portada
METAR-TAF:

METAR-TAF

Aeropuertos :

Aeropuerto Internacional de La Habana

La Habana, Cuba

latitud: 22-59N, longitud: 082-24W, altitud: 59 m

Observación

El informe se hizo hace 1 hora y 24 minutos, a las 01:50 UTC
Viento 6 kt del este
Temperatura 27°C
Humedad 79%
Presión 1015 hPa
Visibilidad: 9000 m
Escasas nubes a una altura de 3000 ft

METAR: MUHA 240150Z 08006KT 9000 FEW030 27/23 Q1015

Hora: 23:14 (03:14 UTC)

Pronóstico

El informe se hizo hace 4 horas y 14 minutos, a las 23:00 UTC
Pronóstico válido del 24 a las 00 UTC al 24 a las 24 UTC
Viento 7 kt del este-noreste
Visibilidad: 9000 m
Escasas nubes a una altura de 3000 ft
Evolucionando progresivamente
del 24 a las 02 UTC al 24 a las 04 UTC
Viento 5 kt del este
Evolucionando progresivamente
del 24 a las 20 UTC al 24 a las 22 UTC
Viento 10 kt del noreste

TAF: MUHA 232300Z 2400/2424 07007KT 9000 FEW030 BECMG 2402/2404 09005KT BECMG 2420/2422 05010KT

Observaciones y pronósticos meteorológicos de más de 4000 aeropuertos (mensajes METAR y TAF).

Los puntos amarillos y rojos representan las estaciones disponibles.

Ponga el ratón en el punto deseado para ver el nombre de la estación.

Haga clic para ver las observaciones y los pronósticos meteorológicos.

Para cambiar el mapa : haga clic en los botones verdes con una cruz de color negro para hacer un zoom, en el botón verde con un guión para alejar o en las flechas verdes para mapas adyacentes.


METAR-TAF: